Timeline UpdatesTrip UpdatesNews PostsPvt PostsTravel TipsAdmin PostsConv PostsFollowed PostsChat RequestsBlog PostsPNR Posts

Disclaimer
Search
 
 
Wed Jul 30, 2014 08:29:38 ISTHomeTrainsΣChainsAtlasPNRForumGalleryNewsFAQTripsMembersLoginFeedback
No Recent News for this Train
Other Trains in the News **new
Latest...
Will be rescheduled conveniently on 03.02.2013 (Sunday)
Sat Feb 02, 2013 (03:29PM)
⇐ Return Journey: Train# 13414

13413/Farakka Express (via Sultanpur)

Oct 15 2013 (7:59PM)
Change Departure Station:
Change Arrival Station:
Post a Train Travel TipPost a Train Travel Tip **new
Post a Comment/Question/Picture/VideoPost a Comment/Question/Picture/Video
Pantry/Catering
✓ Pantry Car Avbl
✓ Catering Avbl
RSA - Rake Sharing
13483/13484/04031/04032
Rake/Coach Composition
LOCO:PARCEL VAN:SLR:UR:UR:UR:UR:UR:B1:A1:PC:S9:S8:S7:S6:S5:S4:S3:S2:S1:UR:SLR;Entry# 234572 Author: ✖★hAяѕH °° °°•ⓥⓘⓡDiesel Philic°°•ⓥⓘⓡ
Loco
LKO WDM 3A/3D [MLDT to LKO] GZB WAP 5/7...
Read more...
[LKO to DLI]
News    PNR    Forum    Time-Table    Availability    Fare Chart    Map    Arr/Dep History    Trips    Gallery    ΣChains    X/O    Timeline    
Travel Time: 17h 10m    37 halts    Distance: 689 km    Avg Speed: 40 km/hr
Type: Mail/Express
Zone: ER/Eastern
Departs @ 19:10 (Avg 38m late)
Platform# ???
 M  T S
Malda Town/MLDT 
Arrives @ 12:20 +1 night (Avg 1h 8m late)
Platform# 2
S T  F 
Jaunpur City/JOP 

37 halts. 155 intermediate Stations between Malda Town and Jaunpur City

Show ALL intermediate Stations  Show Old Time-Table

#CodeStation NameX/OArrivesAvgDepartsAvgHaltPFDay#KmSpeedElevZoneAddress
1MLDT»Malda Town (5)»  -19:10+38--10.06430mERDist - Malda, West Bengal
2NFKNew Farakka Junction (3)X  19:43+4519:53+5110m1135.13432mERDist - Murshidabad, West Bengal
3BHWBarharwa Junction (3)X  20:25+4920:29+494m1153.15636mERBarharwa, Jharkhand
4TPHTinpahar Junction (3)  20:47+5420:48+571m1169.84445mERBamangawan, Jharkhand
5SBGSahibganj Junction (3)X  21:40+5521:50+5410m21107.54338mERSahibganj, Jharkhand
6PPTPirpainti (2)  22:23+5622:24+571m--1131.15653mERBhagalpur, Bihar
7CLGKahalgaon (2)O  22:46+1:0122:47+1:021m21151.45944mERBhagalpur, Bihar
8SBOSabaur (3)  23:10+1:1023:11+1:111m--1174.02442mERSabour, Bihar
9BGPBhagalpur Junction (6)X  23:30+1:0423:40+1:0210m--1181.57949mERBhagalpur, Bihar
10SGGSultanGanj (3)  23:59+1:0900:01+1:092m--1206.44542mERSultanganj, Bihar
11BUPBariarpur (3)  00:25+1:0400:26+1:041m--2224.44542mERMunger, Bihar
12JMPJamalpur Junction (4)X  00:41+1:0400:51+1:0310m--2235.56959mERJamalpur 06344-243101, Bihar
13AHAAbhaipur  01:10+1:0701:11+1:081m--2257.42252mERAbhaipur, Bihar
14KIULKiul Junction (5)  02:15+4102:25+4510m--2280.45853mECRDist. Lakhisarai, Bihar
15BRYABarhiya (3)O  02:42+1:0002:43+1:031m--2296.85647mECRBarahiya, Bihar
16MKAMokama Junction (3)  03:02+1:0703:04+1:082m--2314.55248mECRPatna, Bihar
17BARHBarh (3)X  03:34+3903:36+402m--2340.45849mECRBarh, Bihar
18BKPBakhtiyarpur Junction (5)  03:55+3803:59+364m--2358.79251mECRPatna, Bihar
19FUTFatwa (6)  04:14+5504:16+572m--2381.71953mECRPatna, Bihar
20PNCPatna Saheb (3)  04:54+3204:56+352m--2393.92959mECRPatna, Bihar
21RJPBRajendra Nagar Bihar (4)  05:11+3405:13+362m--2401.22255mECRPatna 800001, Bihar
22PNBEPatna Junction (10)X  05:20+4205:30+4510m52403.83857mECRPatna 800001, Bihar
23DNRDanapur (5)X  05:45+5505:55+5510m--2413.28758mECRKhagaul, Bihar
24BTABihta (2)X  06:07+1:0306:08+1:061m--2430.55862mECRDistt: Patna, Bihar
25ARAAra Junction (3)  06:31+1:0806:33+1:092m--2452.79963mECRarrah( 06182-233411), Bihar
26BEABihiya (3)  06:46+1:1606:48+1:162m--2474.18167mECRBehea, Bihar
27RPRRaghunathpur (4)  06:59+1:1907:01+1:222m--2488.98069mECRRaghunathpur, Bihar
28DUREDumraon (3)X  07:13+1:2907:15+1:292m--2504.94970mECRDumraon, Bihar
29BXRBuxar (3)  07:35+1:2607:40+1:235m--2521.28267mECRBuxar, Bihar
30CSAChausa (2)X  07:48+1:2707:50+1:072m--2532.24368mECRState Highway 14, Bihar
31GMRGahmar (2)  08:03+1:0808:04+1:091m--2541.48268mECRDistt: Ghazipur, Uttar Pradesh
32BWHBhadaura (2)X08:10+1:1208:12+1:122m--2549.64769mECRGhazipur, Uttar Pradesh
33DLNDildarnagar Junction (2)  08:22+1:1208:24+1:132m--2557.49072mECRDildarnagar, Uttar Pradesh
34ZNAZamania (2)  08:33+1:1908:35+1:192m--2570.92977mECRGhazipur, Uttar Pradesh
35MGSMughal Sarai Junction (8)  10:05+1:0010:20+1:0115m32615.12583mECRMughalsarai 232101, Uttar Pradesh
36BSBVaranasi Junction (9)  11:00+4711:20+4620m82631.67382mNRVaranasi 221002, Uttar Pradesh
37JLLJalalGanj (2)  11:52+1:0011:53+1:001m--2670.84587mNRJalalganj Railway Station, Uttar Pradesh
38ZBDZafarabad Junction (4)  12:09+1:0312:10+1:031m--2682.83883mNRNational Highway 56, Uttar Pradesh
39JOP•Jaunpur City (3)•X  12:20+1:0812:22+1:102m22689.17087mNRJaunpur, Uttar Pradesh
40SKNSri Krishna Nagar (2)  12:46+1:1412:47+1:181m12717.04092mNRBadlapur, Uttar Pradesh
41HRPGHarpalGanj (1)X  12:59+1:1913:00+1:281m12725.04090mNRNational Highway 56, Uttar Pradesh
42KEPRKoiripur (1)X  13:16+1:2613:17+1:311m12735.76196mNRNational Highway 56, Uttar Pradesh
43LBALambhua (1)  13:34+1:3413:35+1:391m12752.93897mNRLambhua, Uttar Pradesh
44SLNSultanpur Junction (3)  14:10+1:5214:20+1:5010m12774.87099mNRSultanpur., Uttar Pradesh
45MFKAMusafir Khana (3)  14:47+2:1514:48+2:221m--2806.467105mNRMusfirKhana, Uttar Pradesh
46NHHNihalgarh (3)  15:05+2:3515:06+2:371m12825.361108mNRJagdishpur, Uttar Pradesh
47AKJAkbarGanj (1)  15:21+2:4315:22+2:431m12840.560112mNRSH 31, Uttar Pradesh
48HGHHaidergarh (2)  15:39+2:4915:40+2:511m--2857.516116mNRState Highway 13, Uttar Pradesh
49LKOLucknow Charbagh (9)X19:10+1:1319:35+1:1525m62914.268123mNR226004, Uttar Pradesh
50ONUnnao Junction (5)X  20:23+1:1820:25+1:192m--2968.826129mNRUnnao, Uttar Pradesh
51CNBKanpur Central (10)X  21:05+1:1521:15+1:2210m62986.287128mNCRKANPUR-208 001, Uttar Pradesh
52ETWEtawah (5)X  22:51+1:1922:53+1:222m221125.683154mNCRDistt. Etawah, Uttar Pradesh
53SKBShikohabad Junction (4)X  23:33+1:2823:35+1:302m321181.057166mNCRDistrict Firozabad, Uttar Pradesh
54FZDFirozabad (4)  23:56+1:2723:58+1:312m321200.931164mNCRFirozabad, Uttar Pradesh
55TDLTundla Junction (5)X  00:30+1:2200:38+1:258m231217.474167mNCRDistt.Firozabad, Uttar Pradesh
56HRSHathras Junction (3)X  01:17+1:3501:19+1:372m--31265.482183mNCRMahamaya Nagar(05722-242803), Uttar Pradesh
57ALJNAligarh Junction (4)X  01:41+1:4301:46+1:445m331295.687192mNCRAligarh, Uttar Pradesh
58KRJKhurja Junction (4)  02:16+1:5302:21+1:515m--31339.048199mNCRBulandshahr, Uttar Pradesh
59GZBGhaziabad Junction (6)  03:40+1:3103:42+1:312m331401.745217mNRGhaziabad, Uttar Pradesh
60SBBSahibabad Junction (5)  03:51+1:3703:53+1:362m--31408.438209mNRGhaziabad, Uttar Pradesh
61DSAShahdara Junction (4)  04:04+1:3604:06+1:362m--31415.316212mNRCircular Rd, Delhi NCT
62DLIOld Delhi Junction (16)  04:30+1:35-1031421.6-219mNRNear Chandni Chowk Metro Station, Delhi NCT
Scroll to Top
Scroll to Bottom